sensor_id;sensor_type;location;lat;lon;timestamp;temperature;humidity
9271;DHT22;4673;53.458;9.940;2023-06-10T00:00:13;13.80;99.90
9271;DHT22;4673;53.458;9.940;2023-06-10T00:02:41;13.80;99.90
9271;DHT22;4673;53.458;9.940;2023-06-10T00:05:08;13.80;99.80
9271;DHT22;4673;53.458;9.940;2023-06-10T00:07:34;13.80;99.60
9271;DHT22;4673;53.458;9.940;2023-06-10T00:10:04;13.70;99.40
9271;DHT22;4673;53.458;9.940;2023-06-10T00:12:31;13.70;99.60
9271;DHT22;4673;53.458;9.940;2023-06-10T00:15:07;13.70;99.60
9271;DHT22;4673;53.458;9.940;2023-06-10T00:17:32;13.70;99.80
9271;DHT22;4673;53.458;9.940;2023-06-10T00:19:59;13.70;99.80
9271;DHT22;4673;53.458;9.940;2023-06-10T00:22:24;13.70;99.90
9271;DHT22;4673;53.458;9.940;2023-06-10T00:24:55;13.60;99.90
9271;DHT22;4673;53.458;9.940;2023-06-10T00:27:22;13.60;99.90
9271;DHT22;4673;53.458;9.940;2023-06-10T00:29:47;13.60;99.90
9271;DHT22;4673;53.458;9.940;2023-06-10T00:32:13;13.60;99.70
9271;DHT22;4673;53.458;9.940;2023-06-10T00:34:39;13.60;99.50
9271;DHT22;4673;53.458;9.940;2023-06-10T00:37:05;13.50;99.00
9271;DHT22;4673;53.458;9.940;2023-06-10T00:39:30;13.40;98.70
9271;DHT22;4673;53.458;9.940;2023-06-10T00:41:56;13.40;98.50
9271;DHT22;4673;53.458;9.940;2023-06-10T00:44:21;13.30;98.20
9271;DHT22;4673;53.458;9.940;2023-06-10T00:46:47;13.30;98.00
9271;DHT22;4673;53.458;9.940;2023-06-10T00:49:15;13.20;98.00
9271;DHT22;4673;53.458;9.940;2023-06-10T00:51:42;13.20;97.70
9271;DHT22;4673;53.458;9.940;2023-06-10T00:54:08;13.20;97.70
9271;DHT22;4673;53.458;9.940;2023-06-10T00:56:33;13.10;97.60
9271;DHT22;4673;53.458;9.940;2023-06-10T00:59:00;13.10;97.70
9271;DHT22;4673;53.458;9.940;2023-06-10T01:01:26;13.00;97.50
9271;DHT22;4673;53.458;9.940;2023-06-10T01:03:52;13.00;97.60
9271;DHT22;4673;53.458;9.940;2023-06-10T01:14:54;12.90;97.80
9271;DHT22;4673;53.458;9.940;2023-06-10T01:17:20;12.90;97.70
9271;DHT22;4673;53.458;9.940;2023-06-10T01:19:56;12.80;97.60
9271;DHT22;4673;53.458;9.940;2023-06-10T01:22:24;12.80;97.20
9271;DHT22;4673;53.458;9.940;2023-06-10T01:24:49;12.80;97.10
9271;DHT22;4673;53.458;9.940;2023-06-10T01:27:18;12.70;97.00
9271;DHT22;4673;53.458;9.940;2023-06-10T01:29:48;12.70;97.00
9271;DHT22;4673;53.458;9.940;2023-06-10T01:32:22;12.60;96.90
9271;DHT22;4673;53.458;9.940;2023-06-10T01:34:50;12.60;97.00
9271;DHT22;4673;53.458;9.940;2023-06-10T01:37:18;12.60;97.10
9271;DHT22;4673;53.458;9.940;2023-06-10T01:39:46;12.60;97.00
9271;DHT22;4673;53.458;9.940;2023-06-10T01:42:13;12.50;97.00
9271;DHT22;4673;53.458;9.940;2023-06-10T01:44:39;12.50;97.10
9271;DHT22;4673;53.458;9.940;2023-06-10T01:47:05;12.50;97.00
9271;DHT22;4673;53.458;9.940;2023-06-10T01:49:31;12.40;97.00
9271;DHT22;4673;53.458;9.940;2023-06-10T01:51:57;12.40;96.80
9271;DHT22;4673;53.458;9.940;2023-06-10T01:54:22;12.40;96.90
9271;DHT22;4673;53.458;9.940;2023-06-10T01:56:48;12.40;96.80
9271;DHT22;4673;53.458;9.940;2023-06-10T01:59:13;12.30;96.60
9271;DHT22;4673;53.458;9.940;2023-06-10T02:01:39;12.30;96.70
9271;DHT22;4673;53.458;9.940;2023-06-10T02:04:04;12.30;96.70
9271;DHT22;4673;53.458;9.940;2023-06-10T02:06:30;12.20;96.60
9271;DHT22;4673;53.458;9.940;2023-06-10T02:08:56;12.20;96.50
9271;DHT22;4673;53.458;9.940;2023-06-10T02:11:22;12.20;96.70
9271;DHT22;4673;53.458;9.940;2023-06-10T02:13:47;12.10;96.60
9271;DHT22;4673;53.458;9.940;2023-06-10T02:16:13;12.10;96.70
9271;DHT22;4673;53.458;9.940;2023-06-10T02:18:41;12.10;96.70
9271;DHT22;4673;53.458;9.940;2023-06-10T02:21:08;12.10;96.50
9271;DHT22;4673;53.458;9.940;2023-06-10T02:23:34;12.10;96.60
9271;DHT22;4673;53.458;9.940;2023-06-10T02:26:00;12.10;96.60
9271;DHT22;4673;53.458;9.940;2023-06-10T02:28:26;12.00;96.60
9271;DHT22;4673;53.458;9.940;2023-06-10T02:30:51;12.00;96.50
9271;DHT22;4673;53.458;9.940;2023-06-10T02:33:17;12.00;96.50
9271;DHT22;4673;53.458;9.940;2023-06-10T02:35:43;12.00;96.50
9271;DHT22;4673;53.458;9.940;2023-06-10T02:38:09;12.00;96.70
9271;DHT22;4673;53.458;9.940;2023-06-10T02:40:35;12.00;96.50
9271;DHT22;4673;53.458;9.940;2023-06-10T02:43:00;12.00;96.60
9271;DHT22;4673;53.458;9.940;2023-06-10T02:45:26;12.00;96.40
9271;DHT22;4673;53.458;9.940;2023-06-10T02:47:52;12.00;96.30
9271;DHT22;4673;53.458;9.940;2023-06-10T02:50:18;12.00;96.30
9271;DHT22;4673;53.458;9.940;2023-06-10T02:52:43;11.90;96.30
9271;DHT22;4673;53.458;9.940;2023-06-10T02:55:09;11.90;96.30
9271;DHT22;4673;53.458;9.940;2023-06-10T02:57:35;11.90;96.40
9271;DHT22;4673;53.458;9.940;2023-06-10T03:00:01;11.90;96.50
9271;DHT22;4673;53.458;9.940;2023-06-10T03:02:28;11.90;96.40
9271;DHT22;4673;53.458;9.940;2023-06-10T03:04:57;11.90;96.40
9271;DHT22;4673;53.458;9.940;2023-06-10T03:07:23;11.90;96.30
9271;DHT22;4673;53.458;9.940;2023-06-10T03:09:49;11.90;96.30
9271;DHT22;4673;53.458;9.940;2023-06-10T03:12:15;12.00;96.20
9271;DHT22;4673;53.458;9.940;2023-06-10T03:14:41;12.00;96.00
9271;DHT22;4673;53.458;9.940;2023-06-10T03:17:07;12.00;96.00
9271;DHT22;4673;53.458;9.940;2023-06-10T03:19:34;12.00;95.80
9271;DHT22;4673;53.458;9.940;2023-06-10T03:22:13;12.00;95.60
9271;DHT22;4673;53.458;9.940;2023-06-10T03:24:40;12.10;95.50
9271;DHT22;4673;53.458;9.940;2023-06-10T03:27:09;12.10;95.40
9271;DHT22;4673;53.458;9.940;2023-06-10T03:29:36;12.10;95.30
9271;DHT22;4673;53.458;9.940;2023-06-10T03:32:03;12.10;95.10
9271;DHT22;4673;53.458;9.940;2023-06-10T03:34:28;12.10;95.00
9271;DHT22;4673;53.458;9.940;2023-06-10T03:36:55;12.20;94.80
9271;DHT22;4673;53.458;9.940;2023-06-10T03:39:21;12.20;94.80
9271;DHT22;4673;53.458;9.940;2023-06-10T03:41:49;12.30;94.90
9271;DHT22;4673;53.458;9.940;2023-06-10T03:44:14;12.50;94.90
9271;DHT22;4673;53.458;9.940;2023-06-10T03:46:40;12.50;94.30
9271;DHT22;4673;53.458;9.940;2023-06-10T03:49:06;12.70;93.60
9271;DHT22;4673;53.458;9.940;2023-06-10T03:51:32;12.80;92.60
9271;DHT22;4673;53.458;9.940;2023-06-10T03:53:58;12.80;91.60
9271;DHT22;4673;53.458;9.940;2023-06-10T03:56:24;12.90;91.50
9271;DHT22;4673;53.458;9.940;2023-06-10T03:58:49;13.00;90.80
9271;DHT22;4673;53.458;9.940;2023-06-10T04:01:15;12.90;90.10
9271;DHT22;4673;53.458;9.940;2023-06-10T04:03:43;13.10;90.10
9271;DHT22;4673;53.458;9.940;2023-06-10T04:06:09;13.10;89.60
9271;DHT22;4673;53.458;9.940;2023-06-10T04:08:34;13.00;89.10
9271;DHT22;4673;53.458;9.940;2023-06-10T04:11:01;13.00;89.10
9271;DHT22;4673;53.458;9.940;2023-06-10T04:13:27;13.10;89.40
9271;DHT22;4673;53.458;9.940;2023-06-10T04:15:53;13.30;89.40
9271;DHT22;4673;53.458;9.940;2023-06-10T04:18:20;13.30;88.70
9271;DHT22;4673;53.458;9.940;2023-06-10T04:20:47;13.40;87.90
9271;DHT22;4673;53.458;9.940;2023-06-10T04:23:12;13.50;87.40
9271;DHT22;4673;53.458;9.940;2023-06-10T04:25:38;13.50;87.30
9271;DHT22;4673;53.458;9.940;2023-06-10T04:28:03;13.60;87.10
9271;DHT22;4673;53.458;9.940;2023-06-10T04:30:29;13.70;86.80
9271;DHT22;4673;53.458;9.940;2023-06-10T04:32:56;13.90;86.40
9271;DHT22;4673;53.458;9.940;2023-06-10T04:35:22;14.00;85.80
9271;DHT22;4673;53.458;9.940;2023-06-10T04:37:48;14.20;84.60
9271;DHT22;4673;53.458;9.940;2023-06-10T04:40:13;14.40;83.60
9271;DHT22;4673;53.458;9.940;2023-06-10T04:42:41;14.60;82.70
9271;DHT22;4673;53.458;9.940;2023-06-10T04:45:07;14.90;81.60
9271;DHT22;4673;53.458;9.940;2023-06-10T04:47:33;15.10;80.90
9271;DHT22;4673;53.458;9.940;2023-06-10T04:49:59;15.30;79.40
9271;DHT22;4673;53.458;9.940;2023-06-10T04:52:25;15.40;77.40
9271;DHT22;4673;53.458;9.940;2023-06-10T04:54:51;15.50;76.60
9271;DHT22;4673;53.458;9.940;2023-06-10T04:57:16;15.50;76.70
9271;DHT22;4673;53.458;9.940;2023-06-10T04:59:42;15.70;75.90
9271;DHT22;4673;53.458;9.940;2023-06-10T05:02:07;15.90;75.20
9271;DHT22;4673;53.458;9.940;2023-06-10T05:04:33;16.00;74.20
9271;DHT22;4673;53.458;9.940;2023-06-10T05:06:59;16.00;73.30
9271;DHT22;4673;53.458;9.940;2023-06-10T05:09:24;16.00;73.20
9271;DHT22;4673;53.458;9.940;2023-06-10T05:11:51;16.00;73.40
9271;DHT22;4673;53.458;9.940;2023-06-10T05:14:19;16.00;73.30
9271;DHT22;4673;53.458;9.940;2023-06-10T05:16:46;16.00;72.80
9271;DHT22;4673;53.458;9.940;2023-06-10T05:19:12;16.00;72.50
9271;DHT22;4673;53.458;9.940;2023-06-10T05:21:37;16.10;72.60
9271;DHT22;4673;53.458;9.940;2023-06-10T05:24:03;16.10;71.90
9271;DHT22;4673;53.458;9.940;2023-06-10T05:26:29;15.90;72.20
9271;DHT22;4673;53.458;9.940;2023-06-10T05:28:57;15.70;72.80
9271;DHT22;4673;53.458;9.940;2023-06-10T05:31:22;15.80;74.00
9271;DHT22;4673;53.458;9.940;2023-06-10T05:33:48;15.80;73.50
9271;DHT22;4673;53.458;9.940;2023-06-10T05:36:13;15.80;73.30
9271;DHT22;4673;53.458;9.940;2023-06-10T05:38:39;15.70;73.10
9271;DHT22;4673;53.458;9.940;2023-06-10T05:41:05;15.70;73.80
9271;DHT22;4673;53.458;9.940;2023-06-10T05:43:30;15.80;74.00
9271;DHT22;4673;53.458;9.940;2023-06-10T05:45:56;15.90;73.60
9271;DHT22;4673;53.458;9.940;2023-06-10T05:48:22;16.00;73.10
9271;DHT22;4673;53.458;9.940;2023-06-10T05:50:47;16.00;72.60
9271;DHT22;4673;53.458;9.940;2023-06-10T05:53:16;16.00;72.90
9271;DHT22;4673;53.458;9.940;2023-06-10T05:55:43;15.90;73.40
9271;DHT22;4673;53.458;9.940;2023-06-10T05:58:09;15.90;73.40
9271;DHT22;4673;53.458;9.940;2023-06-10T06:00:35;15.90;73.40
9271;DHT22;4673;53.458;9.940;2023-06-10T06:03:00;16.00;72.90
9271;DHT22;4673;53.458;9.940;2023-06-10T06:05:26;16.00;73.00
9271;DHT22;4673;53.458;9.940;2023-06-10T06:07:53;16.00;72.50
9271;DHT22;4673;53.458;9.940;2023-06-10T06:10:18;16.10;73.00
9271;DHT22;4673;53.458;9.940;2023-06-10T06:12:44;16.20;72.90
9271;DHT22;4673;53.458;9.940;2023-06-10T06:15:10;16.40;72.50
9271;DHT22;4673;53.458;9.940;2023-06-10T06:17:36;16.40;71.30
9271;DHT22;4673;53.458;9.940;2023-06-10T06:20:03;16.50;71.10
9271;DHT22;4673;53.458;9.940;2023-06-10T06:22:29;16.50;71.10
9271;DHT22;4673;53.458;9.940;2023-06-10T06:24:54;16.70;70.30
9271;DHT22;4673;53.458;9.940;2023-06-10T06:27:20;16.70;70.20
9271;DHT22;4673;53.458;9.940;2023-06-10T06:29:46;16.80;70.20
9271;DHT22;4673;53.458;9.940;2023-06-10T06:32:12;16.90;70.00
9271;DHT22;4673;53.458;9.940;2023-06-10T06:34:38;16.90;69.10
9271;DHT22;4673;53.458;9.940;2023-06-10T06:37:03;16.80;69.40
9271;DHT22;4673;53.458;9.940;2023-06-10T06:39:29;16.80;69.80
9271;DHT22;4673;53.458;9.940;2023-06-10T06:41:55;16.70;69.40
9271;DHT22;4673;53.458;9.940;2023-06-10T06:44:20;16.70;69.60
9271;DHT22;4673;53.458;9.940;2023-06-10T06:46:46;16.60;70.00
9271;DHT22;4673;53.458;9.940;2023-06-10T06:49:12;16.60;70.10
9271;DHT22;4673;53.458;9.940;2023-06-10T06:51:37;16.50;70.40
9271;DHT22;4673;53.458;9.940;2023-06-10T06:54:03;16.50;70.40
9271;DHT22;4673;53.458;9.940;2023-06-10T06:56:31;16.50;70.40
9271;DHT22;4673;53.458;9.940;2023-06-10T06:58:56;16.50;71.40
9271;DHT22;4673;53.458;9.940;2023-06-10T07:01:22;16.50;71.80
9271;DHT22;4673;53.458;9.940;2023-06-10T07:03:48;16.70;71.50
9271;DHT22;4673;53.458;9.940;2023-06-10T07:06:14;16.70;71.10
9271;DHT22;4673;53.458;9.940;2023-06-10T07:08:39;16.80;70.20
9271;DHT22;4673;53.458;9.940;2023-06-10T07:11:05;16.70;69.80
9271;DHT22;4673;53.458;9.940;2023-06-10T07:13:31;16.70;70.20
9271;DHT22;4673;53.458;9.940;2023-06-10T07:15:56;16.70;71.10
9271;DHT22;4673;53.458;9.940;2023-06-10T07:18:22;16.80;70.60
9271;DHT22;4673;53.458;9.940;2023-06-10T07:20:47;16.90;70.40
9271;DHT22;4673;53.458;9.940;2023-06-10T07:23:13;17.00;70.00
9271;DHT22;4673;53.458;9.940;2023-06-10T07:25:40;17.00;69.00
9271;DHT22;4673;53.458;9.940;2023-06-10T07:28:06;17.00;69.90
9271;DHT22;4673;53.458;9.940;2023-06-10T07:30:31;17.00;68.60
9271;DHT22;4673;53.458;9.940;2023-06-10T07:32:57;17.00;69.80
9271;DHT22;4673;53.458;9.940;2023-06-10T07:35:23;17.10;69.90
9271;DHT22;4673;53.458;9.940;2023-06-10T07:37:49;17.20;69.30
9271;DHT22;4673;53.458;9.940;2023-06-10T07:40:14;17.20;68.90
9271;DHT22;4673;53.458;9.940;2023-06-10T07:42:40;17.30;68.70
9271;DHT22;4673;53.458;9.940;2023-06-10T07:45:06;17.40;68.30
9271;DHT22;4673;53.458;9.940;2023-06-10T07:47:33;17.40;68.20
9271;DHT22;4673;53.458;9.940;2023-06-10T07:49:59;17.50;67.70
9271;DHT22;4673;53.458;9.940;2023-06-10T07:52:25;17.60;67.20
9271;DHT22;4673;53.458;9.940;2023-06-10T07:54:51;17.70;67.20
9271;DHT22;4673;53.458;9.940;2023-06-10T07:57:18;17.80;66.00
9271;DHT22;4673;53.458;9.940;2023-06-10T07:59:44;17.90;65.30
9271;DHT22;4673;53.458;9.940;2023-06-10T08:02:10;17.90;66.20
9271;DHT22;4673;53.458;9.940;2023-06-10T08:04:35;18.00;65.70
9271;DHT22;4673;53.458;9.940;2023-06-10T08:07:01;18.00;65.30
9271;DHT22;4673;53.458;9.940;2023-06-10T08:09:28;18.00;64.20
9271;DHT22;4673;53.458;9.940;2023-06-10T08:11:53;18.00;64.80
9271;DHT22;4673;53.458;9.940;2023-06-10T08:14:19;18.20;64.30
9271;DHT22;4673;53.458;9.940;2023-06-10T08:16:45;18.20;63.40
9271;DHT22;4673;53.458;9.940;2023-06-10T08:19:11;18.20;64.00
9271;DHT22;4673;53.458;9.940;2023-06-10T08:21:37;18.30;64.40
9271;DHT22;4673;53.458;9.940;2023-06-10T08:24:09;18.40;63.30
9271;DHT22;4673;53.458;9.940;2023-06-10T08:26:34;18.50;62.40
9271;DHT22;4673;53.458;9.940;2023-06-10T08:29:00;18.60;62.20
9271;DHT22;4673;53.458;9.940;2023-06-10T08:31:26;18.50;62.00
9271;DHT22;4673;53.458;9.940;2023-06-10T08:33:51;18.60;62.80
9271;DHT22;4673;53.458;9.940;2023-06-10T08:36:17;18.70;62.80
9271;DHT22;4673;53.458;9.940;2023-06-10T08:38:43;18.90;62.70
9271;DHT22;4673;53.458;9.940;2023-06-10T08:41:09;19.00;62.00
9271;DHT22;4673;53.458;9.940;2023-06-10T08:44:03;19.20;60.70
9271;DHT22;4673;53.458;9.940;2023-06-10T08:46:31;19.40;60.20
9271;DHT22;4673;53.458;9.940;2023-06-10T08:49:01;19.40;58.60
9271;DHT22;4673;53.458;9.940;2023-06-10T08:51:29;19.40;57.40
9271;DHT22;4673;53.458;9.940;2023-06-10T08:54:09;19.60;58.40
9271;DHT22;4673;53.458;9.940;2023-06-10T08:56:39;19.60;58.20
9271;DHT22;4673;53.458;9.940;2023-06-10T08:59:05;19.80;58.50
9271;DHT22;4673;53.458;9.940;2023-06-10T09:01:31;20.00;57.30
9271;DHT22;4673;53.458;9.940;2023-06-10T09:03:59;20.00;55.80
9271;DHT22;4673;53.458;9.940;2023-06-10T09:06:25;20.10;56.20
9271;DHT22;4673;53.458;9.940;2023-06-10T09:08:51;20.20;55.70
9271;DHT22;4673;53.458;9.940;2023-06-10T09:11:17;20.40;54.90
9271;DHT22;4673;53.458;9.940;2023-06-10T09:13:43;20.50;54.00
9271;DHT22;4673;53.458;9.940;2023-06-10T09:16:09;20.60;52.20
9271;DHT22;4673;53.458;9.940;2023-06-10T09:18:37;20.70;52.60
9271;DHT22;4673;53.458;9.940;2023-06-10T09:21:03;20.90;51.80
9271;DHT22;4673;53.458;9.940;2023-06-10T09:23:29;20.80;50.20
9271;DHT22;4673;53.458;9.940;2023-06-10T09:25:58;20.80;51.10
9271;DHT22;4673;53.458;9.940;2023-06-10T09:28:24;20.90;50.50
9271;DHT22;4673;53.458;9.940;2023-06-10T09:30:50;21.10;50.60
9271;DHT22;4673;53.458;9.940;2023-06-10T09:33:26;21.20;49.10
9271;DHT22;4673;53.458;9.940;2023-06-10T09:35:52;21.30;49.50
9271;DHT22;4673;53.458;9.940;2023-06-10T09:38:21;21.30;48.10
9271;DHT22;4673;53.458;9.940;2023-06-10T09:40:54;21.30;48.90
9271;DHT22;4673;53.458;9.940;2023-06-10T09:43:20;21.50;49.60
9271;DHT22;4673;53.458;9.940;2023-06-10T09:45:50;21.60;47.00
9271;DHT22;4673;53.458;9.940;2023-06-10T09:48:18;21.60;47.60
9271;DHT22;4673;53.458;9.940;2023-06-10T09:50:45;21.70;47.10
9271;DHT22;4673;53.458;9.940;2023-06-10T09:53:11;21.80;48.00
9271;DHT22;4673;53.458;9.940;2023-06-10T09:55:38;21.90;47.10
9271;DHT22;4673;53.458;9.940;2023-06-10T09:58:04;21.90;46.60
9271;DHT22;4673;53.458;9.940;2023-06-10T10:00:32;22.00;44.60
9271;DHT22;4673;53.458;9.940;2023-06-10T10:02:58;22.00;45.00
9271;DHT22;4673;53.458;9.940;2023-06-10T10:05:24;22.10;44.20
9271;DHT22;4673;53.458;9.940;2023-06-10T10:07:50;22.00;44.60
9271;DHT22;4673;53.458;9.940;2023-06-10T10:10:19;22.10;44.50
9271;DHT22;4673;53.458;9.940;2023-06-10T10:12:47;22.20;44.50
9271;DHT22;4673;53.458;9.940;2023-06-10T10:15:16;22.20;45.20
9271;DHT22;4673;53.458;9.940;2023-06-10T10:17:52;22.40;44.40
9271;DHT22;4673;53.458;9.940;2023-06-10T10:20:22;22.50;43.60
9271;DHT22;4673;53.458;9.940;2023-06-10T10:22:50;22.70;44.00
9271;DHT22;4673;53.458;9.940;2023-06-10T10:25:24;22.90;42.40
9271;DHT22;4673;53.458;9.940;2023-06-10T10:28:10;23.00;42.10
9271;DHT22;4673;53.458;9.940;2023-06-10T10:30:45;23.20;41.50
9271;DHT22;4673;53.458;9.940;2023-06-10T10:35:55;23.40;40.70
9271;DHT22;4673;53.458;9.940;2023-06-10T10:38:21;23.60;39.10
9271;DHT22;4673;53.458;9.940;2023-06-10T10:40:48;23.50;36.90
9271;DHT22;4673;53.458;9.940;2023-06-10T10:43:15;23.50;39.20
9271;DHT22;4673;53.458;9.940;2023-06-10T10:45:41;23.50;38.80
9271;DHT22;4673;53.458;9.940;2023-06-10T10:48:10;23.50;38.30
9271;DHT22;4673;53.458;9.940;2023-06-10T10:50:38;23.60;37.70
9271;DHT22;4673;53.458;9.940;2023-06-10T10:53:05;23.50;37.70
9271;DHT22;4673;53.458;9.940;2023-06-10T10:55:31;23.50;38.80
9271;DHT22;4673;53.458;9.940;2023-06-10T10:58:07;23.70;38.60
9271;DHT22;4673;53.458;9.940;2023-06-10T11:00:35;23.90;38.00
9271;DHT22;4673;53.458;9.940;2023-06-10T11:03:05;24.00;36.00
9271;DHT22;4673;53.458;9.940;2023-06-10T11:05:40;24.10;36.70
9271;DHT22;4673;53.458;9.940;2023-06-10T11:08:08;24.20;36.50
9271;DHT22;4673;53.458;9.940;2023-06-10T11:10:41;24.30;36.30
9271;DHT22;4673;53.458;9.940;2023-06-10T11:13:16;24.40;33.90
9271;DHT22;4673;53.458;9.940;2023-06-10T11:15:45;24.60;34.40
9271;DHT22;4673;53.458;9.940;2023-06-10T11:18:13;24.60;33.80
9271;DHT22;4673;53.458;9.940;2023-06-10T11:20:58;24.70;33.60
9271;DHT22;4673;53.458;9.940;2023-06-10T11:31:21;24.80;31.10
9271;DHT22;4673;53.458;9.940;2023-06-10T11:33:52;24.70;32.10
9271;DHT22;4673;53.458;9.940;2023-06-10T11:36:17;24.80;32.30
9271;DHT22;4673;53.458;9.940;2023-06-10T11:38:43;25.00;32.10
9271;DHT22;4673;53.458;9.940;2023-06-10T11:41:11;25.00;31.30
9271;DHT22;4673;53.458;9.940;2023-06-10T11:43:42;24.70;31.80
9271;DHT22;4673;53.458;9.940;2023-06-10T11:46:08;24.80;33.00
9271;DHT22;4673;53.458;9.940;2023-06-10T11:48:35;24.90;32.80
9271;DHT22;4673;53.458;9.940;2023-06-10T11:51:00;25.10;32.60
9271;DHT22;4673;53.458;9.940;2023-06-10T11:53:26;25.30;31.60
9271;DHT22;4673;53.458;9.940;2023-06-10T11:55:53;25.40;31.30
9271;DHT22;4673;53.458;9.940;2023-06-10T11:58:22;25.30;30.40
9271;DHT22;4673;53.458;9.940;2023-06-10T12:00:55;25.40;32.00
9271;DHT22;4673;53.458;9.940;2023-06-10T12:03:23;25.60;31.50
9271;DHT22;4673;53.458;9.940;2023-06-10T12:06:05;25.70;30.40
9271;DHT22;4673;53.458;9.940;2023-06-10T12:08:33;25.60;31.40
9271;DHT22;4673;53.458;9.940;2023-06-10T12:10:58;25.40;31.60
9271;DHT22;4673;53.458;9.940;2023-06-10T12:13:27;25.60;31.60
9271;DHT22;4673;53.458;9.940;2023-06-10T12:15:53;25.70;30.50
9271;DHT22;4673;53.458;9.940;2023-06-10T12:18:23;25.70;30.80
9271;DHT22;4673;53.458;9.940;2023-06-10T12:20:50;25.60;29.90
9271;DHT22;4673;53.458;9.940;2023-06-10T12:23:17;25.60;31.20
9271;DHT22;4673;53.458;9.940;2023-06-10T12:25:51;25.70;31.60
9271;DHT22;4673;53.458;9.940;2023-06-10T12:28:20;25.90;30.20
9271;DHT22;4673;53.458;9.940;2023-06-10T12:30:46;26.00;30.90
9271;DHT22;4673;53.458;9.940;2023-06-10T12:33:18;26.20;30.30
9271;DHT22;4673;53.458;9.940;2023-06-10T12:35:51;26.20;29.10
9271;DHT22;4673;53.458;9.940;2023-06-10T12:38:21;26.20;29.50
9271;DHT22;4673;53.458;9.940;2023-06-10T12:40:48;26.10;30.00
9271;DHT22;4673;53.458;9.940;2023-06-10T12:43:22;26.00;30.80
9271;DHT22;4673;53.458;9.940;2023-06-10T12:45:49;26.00;31.40
9271;DHT22;4673;53.458;9.940;2023-06-10T12:48:23;26.10;30.20
9271;DHT22;4673;53.458;9.940;2023-06-10T12:50:53;26.30;29.30
9271;DHT22;4673;53.458;9.940;2023-06-10T12:53:20;26.40;28.10
9271;DHT22;4673;53.458;9.940;2023-06-10T12:55:46;26.50;27.50
9271;DHT22;4673;53.458;9.940;2023-06-10T12:58:13;26.60;27.50
9271;DHT22;4673;53.458;9.940;2023-06-10T13:00:39;26.70;25.60
9271;DHT22;4673;53.458;9.940;2023-06-10T13:03:05;26.70;25.50
9271;DHT22;4673;53.458;9.940;2023-06-10T13:05:32;26.80;23.70
9271;DHT22;4673;53.458;9.940;2023-06-10T13:07:59;26.80;20.30
9271;DHT22;4673;53.458;9.940;2023-06-10T13:10:24;26.80;20.70
9271;DHT22;4673;53.458;9.940;2023-06-10T13:12:51;26.90;21.40
9271;DHT22;4673;53.458;9.940;2023-06-10T13:15:17;26.90;22.20
9271;DHT22;4673;53.458;9.940;2023-06-10T13:17:47;27.00;21.90
9271;DHT22;4673;53.458;9.940;2023-06-10T13:20:15;27.00;20.10
9271;DHT22;4673;53.458;9.940;2023-06-10T13:22:42;27.00;18.70
9271;DHT22;4673;53.458;9.940;2023-06-10T13:25:08;27.00;19.00
9271;DHT22;4673;53.458;9.940;2023-06-10T13:27:35;26.90;18.50
9271;DHT22;4673;53.458;9.940;2023-06-10T13:30:01;26.90;18.50
9271;DHT22;4673;53.458;9.940;2023-06-10T13:32:26;26.90;18.00
9271;DHT22;4673;53.458;9.940;2023-06-10T13:34:52;26.90;17.30
9271;DHT22;4673;53.458;9.940;2023-06-10T13:37:19;26.90;16.90
9271;DHT22;4673;53.458;9.940;2023-06-10T13:39:45;26.90;17.70
9271;DHT22;4673;53.458;9.940;2023-06-10T13:42:14;27.00;17.60
9271;DHT22;4673;53.458;9.940;2023-06-10T13:44:40;27.00;18.20
9271;DHT22;4673;53.458;9.940;2023-06-10T13:47:06;27.10;18.40
9271;DHT22;4673;53.458;9.940;2023-06-10T13:49:32;27.20;17.10
9271;DHT22;4673;53.458;9.940;2023-06-10T13:51:57;27.20;16.90
9271;DHT22;4673;53.458;9.940;2023-06-10T13:54:23;27.20;17.00
9271;DHT22;4673;53.458;9.940;2023-06-10T13:56:49;27.30;16.50
9271;DHT22;4673;53.458;9.940;2023-06-10T13:59:14;27.30;16.50
9271;DHT22;4673;53.458;9.940;2023-06-10T14:01:41;27.30;15.90
9271;DHT22;4673;53.458;9.940;2023-06-10T14:04:07;27.30;15.70
9271;DHT22;4673;53.458;9.940;2023-06-10T14:06:33;27.40;15.40
9271;DHT22;4673;53.458;9.940;2023-06-10T14:09:02;27.40;14.60
9271;DHT22;4673;53.458;9.940;2023-06-10T14:11:28;27.40;15.20
9271;DHT22;4673;53.458;9.940;2023-06-10T14:13:53;27.50;14.70
9271;DHT22;4673;53.458;9.940;2023-06-10T14:16:22;27.60;14.60
9271;DHT22;4673;53.458;9.940;2023-06-10T14:18:47;27.60;13.60
9271;DHT22;4673;53.458;9.940;2023-06-10T14:21:13;27.60;13.60
9271;DHT22;4673;53.458;9.940;2023-06-10T14:23:39;27.70;13.30
9271;DHT22;4673;53.458;9.940;2023-06-10T14:26:04;27.90;12.70
9271;DHT22;4673;53.458;9.940;2023-06-10T14:28:32;27.90;12.40
9271;DHT22;4673;53.458;9.940;2023-06-10T14:30:58;28.00;12.50
9271;DHT22;4673;53.458;9.940;2023-06-10T14:33:23;28.20;12.40
9271;DHT22;4673;53.458;9.940;2023-06-10T14:35:49;28.20;14.60
9271;DHT22;4673;53.458;9.940;2023-06-10T14:38:15;28.20;16.80
9271;DHT22;4673;53.458;9.940;2023-06-10T14:40:40;28.20;17.50
9271;DHT22;4673;53.458;9.940;2023-06-10T14:43:06;28.00;17.80
9271;DHT22;4673;53.458;9.940;2023-06-10T14:45:39;27.70;19.00
9271;DHT22;4673;53.458;9.940;2023-06-10T14:48:06;27.40;20.40
9271;DHT22;4673;53.458;9.940;2023-06-10T14:50:32;27.40;20.70
9271;DHT22;4673;53.458;9.940;2023-06-10T14:52:59;27.30;21.20
9271;DHT22;4673;53.458;9.940;2023-06-10T14:55:25;27.20;21.80
9271;DHT22;4673;53.458;9.940;2023-06-10T14:57:51;27.20;22.10
9271;DHT22;4673;53.458;9.940;2023-06-10T15:00:17;27.20;22.60
9271;DHT22;4673;53.458;9.940;2023-06-10T15:02:46;27.20;22.40
9271;DHT22;4673;53.458;9.940;2023-06-10T15:05:15;27.10;23.50
9271;DHT22;4673;53.458;9.940;2023-06-10T15:07:42;26.90;23.20
9271;DHT22;4673;53.458;9.940;2023-06-10T15:10:08;26.80;24.30
9271;DHT22;4673;53.458;9.940;2023-06-10T15:12:34;26.80;25.30
9271;DHT22;4673;53.458;9.940;2023-06-10T15:14:59;26.80;25.40
9271;DHT22;4673;53.458;9.940;2023-06-10T15:17:26;26.80;25.20
9271;DHT22;4673;53.458;9.940;2023-06-10T15:19:51;26.80;25.70
9271;DHT22;4673;53.458;9.940;2023-06-10T15:22:17;26.80;25.20
9271;DHT22;4673;53.458;9.940;2023-06-10T15:24:43;26.80;25.70
9271;DHT22;4673;53.458;9.940;2023-06-10T15:27:09;26.80;25.10
9271;DHT22;4673;53.458;9.940;2023-06-10T15:29:35;26.80;26.00
9271;DHT22;4673;53.458;9.940;2023-06-10T15:32:00;26.80;25.80
9271;DHT22;4673;53.458;9.940;2023-06-10T15:34:26;26.50;26.20
9271;DHT22;4673;53.458;9.940;2023-06-10T15:36:52;26.40;27.20
9271;DHT22;4673;53.458;9.940;2023-06-10T15:39:17;26.30;27.80
9271;DHT22;4673;53.458;9.940;2023-06-10T15:41:44;26.20;27.90
9271;DHT22;4673;53.458;9.940;2023-06-10T15:44:10;26.20;27.80
9271;DHT22;4673;53.458;9.940;2023-06-10T15:46:36;26.00;28.70
9271;DHT22;4673;53.458;9.940;2023-06-10T15:49:01;25.90;28.80
9271;DHT22;4673;53.458;9.940;2023-06-10T15:51:28;26.00;29.80
9271;DHT22;4673;53.458;9.940;2023-06-10T15:53:54;26.00;29.40
9271;DHT22;4673;53.458;9.940;2023-06-10T15:56:20;26.00;29.20
9271;DHT22;4673;53.458;9.940;2023-06-10T15:58:46;26.10;29.10
9271;DHT22;4673;53.458;9.940;2023-06-10T16:01:12;26.20;28.10
9271;DHT22;4673;53.458;9.940;2023-06-10T16:03:39;26.10;28.10
9271;DHT22;4673;53.458;9.940;2023-06-10T16:06:05;26.10;28.70
9271;DHT22;4673;53.458;9.940;2023-06-10T16:08:31;26.10;28.60
9271;DHT22;4673;53.458;9.940;2023-06-10T16:10:57;26.10;27.90
9271;DHT22;4673;53.458;9.940;2023-06-10T16:13:22;26.00;28.10
9271;DHT22;4673;53.458;9.940;2023-06-10T16:15:48;25.80;28.90
9271;DHT22;4673;53.458;9.940;2023-06-10T16:18:14;25.80;28.70